sensor_id;sensor_type;location;lat;lon;timestamp;P1;durP1;ratioP1;P2;durP2;ratioP2
19495;SDS011;9888;48.606;9.630;2023-03-01T00:01:37;23.67;;;11.43;;
19495;SDS011;9888;48.606;9.630;2023-03-01T00:04:08;23.00;;;10.60;;
19495;SDS011;9888;48.606;9.630;2023-03-01T00:06:35;23.13;;;10.17;;
19495;SDS011;9888;48.606;9.630;2023-03-01T00:09:04;23.47;;;10.63;;
19495;SDS011;9888;48.606;9.630;2023-03-01T00:11:31;27.37;;;11.60;;
19495;SDS011;9888;48.606;9.630;2023-03-01T00:13:59;23.27;;;10.57;;
19495;SDS011;9888;48.606;9.630;2023-03-01T00:16:36;26.40;;;11.00;;
19495;SDS011;9888;48.606;9.630;2023-03-01T00:22:13;24.53;;;10.67;;
19495;SDS011;9888;48.606;9.630;2023-03-01T00:24:40;29.20;;;11.03;;
19495;SDS011;9888;48.606;9.630;2023-03-01T00:27:07;29.73;;;11.97;;
19495;SDS011;9888;48.606;9.630;2023-03-01T00:29:35;21.47;;;10.90;;
19495;SDS011;9888;48.606;9.630;2023-03-01T00:32:03;26.83;;;11.70;;
19495;SDS011;9888;48.606;9.630;2023-03-01T00:34:35;25.63;;;11.53;;
19495;SDS011;9888;48.606;9.630;2023-03-01T00:37:02;27.53;;;10.50;;
19495;SDS011;9888;48.606;9.630;2023-03-01T00:39:31;23.47;;;10.97;;
19495;SDS011;9888;48.606;9.630;2023-03-01T00:42:02;27.33;;;11.87;;
19495;SDS011;9888;48.606;9.630;2023-03-01T00:44:34;31.53;;;10.87;;
19495;SDS011;9888;48.606;9.630;2023-03-01T00:47:05;25.93;;;11.70;;
19495;SDS011;9888;48.606;9.630;2023-03-01T00:52:43;25.50;;;10.80;;
19495;SDS011;9888;48.606;9.630;2023-03-01T00:55:11;24.07;;;11.00;;
19495;SDS011;9888;48.606;9.630;2023-03-01T00:57:39;25.53;;;11.23;;
19495;SDS011;9888;48.606;9.630;2023-03-01T01:00:15;27.20;;;11.00;;
19495;SDS011;9888;48.606;9.630;2023-03-01T01:02:43;32.20;;;12.00;;
19495;SDS011;9888;48.606;9.630;2023-03-01T01:05:13;26.30;;;10.83;;
19495;SDS011;9888;48.606;9.630;2023-03-01T01:07:47;24.23;;;10.83;;
19495;SDS011;9888;48.606;9.630;2023-03-01T01:13:10;24.13;;;11.10;;
19495;SDS011;9888;48.606;9.630;2023-03-01T01:15:38;24.03;;;10.70;;
19495;SDS011;9888;48.606;9.630;2023-03-01T01:18:05;28.13;;;12.17;;
19495;SDS011;9888;48.606;9.630;2023-03-01T01:20:35;27.47;;;11.33;;
19495;SDS011;9888;48.606;9.630;2023-03-01T01:23:06;32.40;;;13.13;;
19495;SDS011;9888;48.606;9.630;2023-03-01T01:25:35;25.90;;;11.60;;
19495;SDS011;9888;48.606;9.630;2023-03-01T01:28:02;28.93;;;11.37;;
19495;SDS011;9888;48.606;9.630;2023-03-01T01:30:30;27.33;;;12.30;;
19495;SDS011;9888;48.606;9.630;2023-03-01T01:32:57;27.90;;;12.50;;
19495;SDS011;9888;48.606;9.630;2023-03-01T01:35:25;26.90;;;12.10;;
19495;SDS011;9888;48.606;9.630;2023-03-01T01:37:54;29.60;;;12.67;;
19495;SDS011;9888;48.606;9.630;2023-03-01T01:40:21;25.23;;;11.97;;
19495;SDS011;9888;48.606;9.630;2023-03-01T01:42:49;25.90;;;13.10;;
19495;SDS011;9888;48.606;9.630;2023-03-01T01:45:32;28.30;;;13.13;;
19495;SDS011;9888;48.606;9.630;2023-03-01T01:48:14;31.50;;;13.10;;
19495;SDS011;9888;48.606;9.630;2023-03-01T01:50:48;28.83;;;12.67;;
19495;SDS011;9888;48.606;9.630;2023-03-01T01:53:21;30.90;;;13.03;;
19495;SDS011;9888;48.606;9.630;2023-03-01T01:55:54;25.20;;;11.97;;
19495;SDS011;9888;48.606;9.630;2023-03-01T01:58:26;30.97;;;13.37;;
19495;SDS011;9888;48.606;9.630;2023-03-01T02:00:59;29.60;;;13.10;;
19495;SDS011;9888;48.606;9.630;2023-03-01T02:03:28;27.63;;;12.97;;
19495;SDS011;9888;48.606;9.630;2023-03-01T02:06:06;28.93;;;12.77;;
19495;SDS011;9888;48.606;9.630;2023-03-01T02:08:36;30.33;;;13.00;;
19495;SDS011;9888;48.606;9.630;2023-03-01T02:11:05;31.53;;;14.20;;
19495;SDS011;9888;48.606;9.630;2023-03-01T02:13:33;31.77;;;13.57;;
19495;SDS011;9888;48.606;9.630;2023-03-01T02:16:05;33.83;;;12.83;;
19495;SDS011;9888;48.606;9.630;2023-03-01T02:18:35;27.60;;;12.47;;
19495;SDS011;9888;48.606;9.630;2023-03-01T02:21:14;33.70;;;13.50;;
19495;SDS011;9888;48.606;9.630;2023-03-01T02:24:07;27.70;;;12.67;;
19495;SDS011;9888;48.606;9.630;2023-03-01T02:27:02;24.10;;;11.77;;
19495;SDS011;9888;48.606;9.630;2023-03-01T02:29:29;29.47;;;13.37;;
19495;SDS011;9888;48.606;9.630;2023-03-01T02:31:59;25.47;;;12.33;;
19495;SDS011;9888;48.606;9.630;2023-03-01T02:34:30;27.60;;;12.43;;
19495;SDS011;9888;48.606;9.630;2023-03-01T02:39:37;29.93;;;12.90;;
19495;SDS011;9888;48.606;9.630;2023-03-01T02:42:12;27.97;;;12.80;;
19495;SDS011;9888;48.606;9.630;2023-03-01T02:44:42;28.70;;;13.57;;
19495;SDS011;9888;48.606;9.630;2023-03-01T02:47:09;28.47;;;12.50;;
19495;SDS011;9888;48.606;9.630;2023-03-01T02:49:36;29.07;;;13.27;;
19495;SDS011;9888;48.606;9.630;2023-03-01T02:55:12;25.40;;;12.03;;
19495;SDS011;9888;48.606;9.630;2023-03-01T02:57:45;29.60;;;13.70;;
19495;SDS011;9888;48.606;9.630;2023-03-01T03:00:19;33.63;;;13.43;;
19495;SDS011;9888;48.606;9.630;2023-03-01T03:02:56;26.70;;;12.90;;
19495;SDS011;9888;48.606;9.630;2023-03-01T03:05:28;31.70;;;13.60;;
19495;SDS011;9888;48.606;9.630;2023-03-01T03:07:56;27.90;;;13.60;;
19495;SDS011;9888;48.606;9.630;2023-03-01T03:10:28;28.90;;;12.33;;
19495;SDS011;9888;48.606;9.630;2023-03-01T03:13:07;30.17;;;12.67;;
19495;SDS011;9888;48.606;9.630;2023-03-01T03:15:44;27.77;;;13.13;;
19495;SDS011;9888;48.606;9.630;2023-03-01T03:18:13;27.90;;;13.00;;
19495;SDS011;9888;48.606;9.630;2023-03-01T03:20:42;28.77;;;13.43;;
19495;SDS011;9888;48.606;9.630;2023-03-01T03:23:10;33.53;;;14.50;;
19495;SDS011;9888;48.606;9.630;2023-03-01T03:25:39;32.73;;;14.40;;
19495;SDS011;9888;48.606;9.630;2023-03-01T03:28:06;28.67;;;13.03;;
19495;SDS011;9888;48.606;9.630;2023-03-01T03:30:41;30.10;;;13.37;;
19495;SDS011;9888;48.606;9.630;2023-03-01T03:33:10;32.93;;;13.90;;
19495;SDS011;9888;48.606;9.630;2023-03-01T03:35:41;33.53;;;15.90;;
19495;SDS011;9888;48.606;9.630;2023-03-01T03:38:12;30.53;;;14.13;;
19495;SDS011;9888;48.606;9.630;2023-03-01T03:40:44;31.10;;;13.17;;
19495;SDS011;9888;48.606;9.630;2023-03-01T03:43:22;34.00;;;13.63;;
19495;SDS011;9888;48.606;9.630;2023-03-01T03:45:50;29.03;;;13.50;;
19495;SDS011;9888;48.606;9.630;2023-03-01T03:48:19;30.60;;;14.30;;
19495;SDS011;9888;48.606;9.630;2023-03-01T03:50:50;30.07;;;13.50;;
19495;SDS011;9888;48.606;9.630;2023-03-01T03:53:22;29.67;;;13.87;;
19495;SDS011;9888;48.606;9.630;2023-03-01T03:55:50;31.90;;;13.93;;
19495;SDS011;9888;48.606;9.630;2023-03-01T03:58:19;30.83;;;14.23;;
19495;SDS011;9888;48.606;9.630;2023-03-01T04:00:50;29.07;;;13.40;;
19495;SDS011;9888;48.606;9.630;2023-03-01T04:03:21;32.00;;;13.50;;
19495;SDS011;9888;48.606;9.630;2023-03-01T04:05:49;30.63;;;13.30;;
19495;SDS011;9888;48.606;9.630;2023-03-01T04:08:18;27.50;;;13.00;;
19495;SDS011;9888;48.606;9.630;2023-03-01T04:10:48;31.80;;;13.83;;
19495;SDS011;9888;48.606;9.630;2023-03-01T04:13:18;30.83;;;13.53;;
19495;SDS011;9888;48.606;9.630;2023-03-01T04:15:49;32.60;;;13.27;;
19495;SDS011;9888;48.606;9.630;2023-03-01T04:18:18;28.77;;;14.00;;
19495;SDS011;9888;48.606;9.630;2023-03-01T04:20:46;28.83;;;13.77;;
19495;SDS011;9888;48.606;9.630;2023-03-01T04:23:19;31.60;;;11.80;;
19495;SDS011;9888;48.606;9.630;2023-03-01T04:25:48;31.50;;;13.53;;
19495;SDS011;9888;48.606;9.630;2023-03-01T04:28:22;30.53;;;13.07;;
19495;SDS011;9888;48.606;9.630;2023-03-01T04:30:57;31.27;;;13.90;;
19495;SDS011;9888;48.606;9.630;2023-03-01T04:33:44;29.53;;;14.73;;
19495;SDS011;9888;48.606;9.630;2023-03-01T04:36:13;27.27;;;12.90;;
19495;SDS011;9888;48.606;9.630;2023-03-01T04:38:41;30.07;;;13.63;;
19495;SDS011;9888;48.606;9.630;2023-03-01T04:41:12;31.00;;;13.63;;
19495;SDS011;9888;48.606;9.630;2023-03-01T04:43:40;25.87;;;12.17;;
19495;SDS011;9888;48.606;9.630;2023-03-01T04:46:08;33.37;;;14.07;;
19495;SDS011;9888;48.606;9.630;2023-03-01T04:48:39;29.70;;;13.20;;
19495;SDS011;9888;48.606;9.630;2023-03-01T04:51:09;28.50;;;10.80;;
19495;SDS011;9888;48.606;9.630;2023-03-01T04:53:40;28.17;;;13.60;;
19495;SDS011;9888;48.606;9.630;2023-03-01T04:56:11;29.53;;;13.10;;
19495;SDS011;9888;48.606;9.630;2023-03-01T04:58:43;26.77;;;13.10;;
19495;SDS011;9888;48.606;9.630;2023-03-01T05:01:12;26.90;;;12.40;;
19495;SDS011;9888;48.606;9.630;2023-03-01T05:03:43;29.17;;;11.70;;
19495;SDS011;9888;48.606;9.630;2023-03-01T05:06:31;31.27;;;14.90;;
19495;SDS011;9888;48.606;9.630;2023-03-01T05:09:00;29.37;;;13.47;;
19495;SDS011;9888;48.606;9.630;2023-03-01T05:11:27;29.20;;;13.67;;
19495;SDS011;9888;48.606;9.630;2023-03-01T05:14:05;33.97;;;13.80;;
19495;SDS011;9888;48.606;9.630;2023-03-01T05:16:34;31.90;;;13.17;;
19495;SDS011;9888;48.606;9.630;2023-03-01T05:19:03;30.27;;;13.03;;
19495;SDS011;9888;48.606;9.630;2023-03-01T05:21:39;30.13;;;14.30;;
19495;SDS011;9888;48.606;9.630;2023-03-01T05:24:25;29.27;;;13.90;;
19495;SDS011;9888;48.606;9.630;2023-03-01T05:26:53;31.80;;;14.30;;
19495;SDS011;9888;48.606;9.630;2023-03-01T05:29:24;32.67;;;14.07;;
19495;SDS011;9888;48.606;9.630;2023-03-01T05:31:52;37.27;;;14.47;;
19495;SDS011;9888;48.606;9.630;2023-03-01T05:34:27;31.27;;;14.03;;
19495;SDS011;9888;48.606;9.630;2023-03-01T05:37:01;28.50;;;13.53;;
19495;SDS011;9888;48.606;9.630;2023-03-01T05:39:29;34.00;;;14.10;;
19495;SDS011;9888;48.606;9.630;2023-03-01T05:41:57;33.67;;;14.40;;
19495;SDS011;9888;48.606;9.630;2023-03-01T05:44:28;31.60;;;13.60;;
19495;SDS011;9888;48.606;9.630;2023-03-01T05:46:55;30.97;;;13.87;;
19495;SDS011;9888;48.606;9.630;2023-03-01T05:49:22;28.57;;;13.23;;
19495;SDS011;9888;48.606;9.630;2023-03-01T05:51:51;29.03;;;12.80;;
19495;SDS011;9888;48.606;9.630;2023-03-01T05:54:20;29.10;;;13.27;;
19495;SDS011;9888;48.606;9.630;2023-03-01T05:56:48;30.60;;;13.80;;
19495;SDS011;9888;48.606;9.630;2023-03-01T05:59:15;29.07;;;14.23;;
19495;SDS011;9888;48.606;9.630;2023-03-01T06:01:46;28.13;;;14.00;;
19495;SDS011;9888;48.606;9.630;2023-03-01T06:04:13;30.73;;;13.33;;
19495;SDS011;9888;48.606;9.630;2023-03-01T06:06:39;30.60;;;13.73;;
19495;SDS011;9888;48.606;9.630;2023-03-01T06:09:06;32.50;;;12.80;;
19495;SDS011;9888;48.606;9.630;2023-03-01T06:11:35;31.37;;;13.40;;
19495;SDS011;9888;48.606;9.630;2023-03-01T06:14:03;31.13;;;13.47;;
19495;SDS011;9888;48.606;9.630;2023-03-01T06:16:34;31.80;;;13.43;;
19495;SDS011;9888;48.606;9.630;2023-03-01T06:19:03;32.10;;;15.40;;
19495;SDS011;9888;48.606;9.630;2023-03-01T06:21:30;33.10;;;15.03;;
19495;SDS011;9888;48.606;9.630;2023-03-01T06:24:00;26.60;;;12.90;;
19495;SDS011;9888;48.606;9.630;2023-03-01T06:26:33;32.20;;;15.60;;
19495;SDS011;9888;48.606;9.630;2023-03-01T06:29:01;33.10;;;13.27;;
19495;SDS011;9888;48.606;9.630;2023-03-01T06:31:33;33.30;;;13.60;;
19495;SDS011;9888;48.606;9.630;2023-03-01T06:33:59;31.47;;;13.60;;
19495;SDS011;9888;48.606;9.630;2023-03-01T06:36:26;29.80;;;13.10;;
19495;SDS011;9888;48.606;9.630;2023-03-01T06:38:53;32.20;;;13.20;;
19495;SDS011;9888;48.606;9.630;2023-03-01T06:41:20;29.20;;;13.60;;
19495;SDS011;9888;48.606;9.630;2023-03-01T06:43:46;29.17;;;12.97;;
19495;SDS011;9888;48.606;9.630;2023-03-01T06:46:25;30.87;;;14.17;;
19495;SDS011;9888;48.606;9.630;2023-03-01T06:48:53;28.97;;;13.50;;
19495;SDS011;9888;48.606;9.630;2023-03-01T06:51:38;34.30;;;13.50;;
19495;SDS011;9888;48.606;9.630;2023-03-01T06:54:17;31.53;;;13.30;;
19495;SDS011;9888;48.606;9.630;2023-03-01T06:56:47;39.07;;;14.97;;
19495;SDS011;9888;48.606;9.630;2023-03-01T06:59:16;41.30;;;14.40;;
19495;SDS011;9888;48.606;9.630;2023-03-01T07:01:44;33.77;;;14.20;;
19495;SDS011;9888;48.606;9.630;2023-03-01T07:04:12;40.80;;;15.03;;
19495;SDS011;9888;48.606;9.630;2023-03-01T07:06:39;32.60;;;15.27;;
19495;SDS011;9888;48.606;9.630;2023-03-01T07:09:06;34.10;;;14.90;;
19495;SDS011;9888;48.606;9.630;2023-03-01T07:11:33;33.43;;;15.77;;
19495;SDS011;9888;48.606;9.630;2023-03-01T07:14:04;32.90;;;14.13;;
19495;SDS011;9888;48.606;9.630;2023-03-01T07:16:32;35.00;;;15.20;;
19495;SDS011;9888;48.606;9.630;2023-03-01T07:19:00;33.00;;;14.97;;
19495;SDS011;9888;48.606;9.630;2023-03-01T07:24:17;37.07;;;14.60;;
19495;SDS011;9888;48.606;9.630;2023-03-01T07:26:47;33.13;;;12.80;;
19495;SDS011;9888;48.606;9.630;2023-03-01T07:29:19;34.43;;;15.93;;
19495;SDS011;9888;48.606;9.630;2023-03-01T07:35:08;34.80;;;16.73;;
19495;SDS011;9888;48.606;9.630;2023-03-01T07:37:35;24.50;;;11.30;;
19495;SDS011;9888;48.606;9.630;2023-03-01T07:40:01;32.53;;;12.60;;
19495;SDS011;9888;48.606;9.630;2023-03-01T07:42:29;28.07;;;13.07;;
19495;SDS011;9888;48.606;9.630;2023-03-01T07:45:10;34.90;;;13.53;;
19495;SDS011;9888;48.606;9.630;2023-03-01T07:47:39;29.23;;;12.27;;
19495;SDS011;9888;48.606;9.630;2023-03-01T07:50:06;32.40;;;14.47;;
19495;SDS011;9888;48.606;9.630;2023-03-01T07:52:39;30.77;;;12.73;;
19495;SDS011;9888;48.606;9.630;2023-03-01T07:55:06;29.17;;;13.40;;
19495;SDS011;9888;48.606;9.630;2023-03-01T07:57:39;28.80;;;13.83;;
19495;SDS011;9888;48.606;9.630;2023-03-01T08:00:07;33.00;;;12.67;;
19495;SDS011;9888;48.606;9.630;2023-03-01T08:02:38;33.20;;;14.27;;
19495;SDS011;9888;48.606;9.630;2023-03-01T08:05:07;29.10;;;12.80;;
19495;SDS011;9888;48.606;9.630;2023-03-01T08:07:38;34.33;;;15.10;;
19495;SDS011;9888;48.606;9.630;2023-03-01T08:10:06;28.70;;;12.60;;
19495;SDS011;9888;48.606;9.630;2023-03-01T08:12:33;30.33;;;14.20;;
19495;SDS011;9888;48.606;9.630;2023-03-01T08:15:00;33.90;;;14.07;;
19495;SDS011;9888;48.606;9.630;2023-03-01T08:17:28;30.53;;;14.40;;
19495;SDS011;9888;48.606;9.630;2023-03-01T08:19:55;32.47;;;15.57;;
19495;SDS011;9888;48.606;9.630;2023-03-01T08:22:21;36.30;;;15.73;;
19495;SDS011;9888;48.606;9.630;2023-03-01T08:24:50;32.13;;;15.10;;
19495;SDS011;9888;48.606;9.630;2023-03-01T08:27:17;31.73;;;14.73;;
19495;SDS011;9888;48.606;9.630;2023-03-01T08:29:44;28.83;;;13.10;;
19495;SDS011;9888;48.606;9.630;2023-03-01T08:32:11;27.20;;;14.00;;
19495;SDS011;9888;48.606;9.630;2023-03-01T08:34:37;29.20;;;13.93;;
19495;SDS011;9888;48.606;9.630;2023-03-01T08:37:08;27.73;;;13.60;;
19495;SDS011;9888;48.606;9.630;2023-03-01T08:39:35;32.63;;;15.03;;
19495;SDS011;9888;48.606;9.630;2023-03-01T08:45:20;30.23;;;14.30;;
19495;SDS011;9888;48.606;9.630;2023-03-01T08:47:47;30.67;;;13.47;;
19495;SDS011;9888;48.606;9.630;2023-03-01T08:50:18;29.10;;;14.60;;
19495;SDS011;9888;48.606;9.630;2023-03-01T08:52:45;33.47;;;14.37;;
19495;SDS011;9888;48.606;9.630;2023-03-01T08:55:12;31.60;;;14.20;;
19495;SDS011;9888;48.606;9.630;2023-03-01T08:57:41;33.20;;;14.80;;
19495;SDS011;9888;48.606;9.630;2023-03-01T09:00:09;25.23;;;12.53;;
19495;SDS011;9888;48.606;9.630;2023-03-01T09:02:37;31.43;;;14.53;;
19495;SDS011;9888;48.606;9.630;2023-03-01T09:05:04;28.67;;;14.63;;
19495;SDS011;9888;48.606;9.630;2023-03-01T09:07:31;29.10;;;15.33;;
19495;SDS011;9888;48.606;9.630;2023-03-01T09:09:58;31.33;;;14.47;;
19495;SDS011;9888;48.606;9.630;2023-03-01T09:12:26;29.67;;;14.60;;
19495;SDS011;9888;48.606;9.630;2023-03-01T09:14:53;27.53;;;13.00;;
19495;SDS011;9888;48.606;9.630;2023-03-01T09:17:19;35.80;;;15.40;;
19495;SDS011;9888;48.606;9.630;2023-03-01T09:20:13;31.20;;;14.93;;
19495;SDS011;9888;48.606;9.630;2023-03-01T09:22:40;26.80;;;13.47;;
19495;SDS011;9888;48.606;9.630;2023-03-01T09:25:07;32.87;;;13.93;;
19495;SDS011;9888;48.606;9.630;2023-03-01T09:27:35;33.43;;;15.57;;
19495;SDS011;9888;48.606;9.630;2023-03-01T09:30:02;29.20;;;14.30;;
19495;SDS011;9888;48.606;9.630;2023-03-01T09:32:32;29.70;;;14.10;;
19495;SDS011;9888;48.606;9.630;2023-03-01T09:34:59;29.07;;;14.73;;
19495;SDS011;9888;48.606;9.630;2023-03-01T09:37:32;28.50;;;14.87;;
19495;SDS011;9888;48.606;9.630;2023-03-01T09:40:00;26.50;;;14.70;;
19495;SDS011;9888;48.606;9.630;2023-03-01T09:42:30;28.57;;;15.80;;
19495;SDS011;9888;48.606;9.630;2023-03-01T09:45:04;30.57;;;15.50;;
19495;SDS011;9888;48.606;9.630;2023-03-01T09:47:39;29.50;;;15.80;;
19495;SDS011;9888;48.606;9.630;2023-03-01T09:50:18;30.63;;;15.67;;
19495;SDS011;9888;48.606;9.630;2023-03-01T09:55:51;27.83;;;14.10;;
19495;SDS011;9888;48.606;9.630;2023-03-01T10:07:05;29.87;;;15.20;;
19495;SDS011;9888;48.606;9.630;2023-03-01T10:09:38;28.63;;;13.97;;
19495;SDS011;9888;48.606;9.630;2023-03-01T10:12:17;30.60;;;15.60;;
19495;SDS011;9888;48.606;9.630;2023-03-01T10:15:10;26.33;;;14.53;;
19495;SDS011;9888;48.606;9.630;2023-03-01T10:17:50;26.30;;;14.20;;
19495;SDS011;9888;48.606;9.630;2023-03-01T10:23:49;27.93;;;14.80;;
19495;SDS011;9888;48.606;9.630;2023-03-01T10:29:06;27.00;;;15.50;;
19495;SDS011;9888;48.606;9.630;2023-03-01T10:31:48;32.10;;;14.10;;
19495;SDS011;9888;48.606;9.630;2023-03-01T10:34:21;27.40;;;14.30;;
19495;SDS011;9888;48.606;9.630;2023-03-01T10:37:15;26.83;;;14.80;;
19495;SDS011;9888;48.606;9.630;2023-03-01T10:39:57;25.30;;;13.43;;
19495;SDS011;9888;48.606;9.630;2023-03-01T10:43:10;26.70;;;14.10;;
19495;SDS011;9888;48.606;9.630;2023-03-01T10:45:31;29.60;;;15.97;;
19495;SDS011;9888;48.606;9.630;2023-03-01T10:48:11;27.83;;;15.47;;
19495;SDS011;9888;48.606;9.630;2023-03-01T10:50:45;25.47;;;14.77;;
19495;SDS011;9888;48.606;9.630;2023-03-01T10:53:26;25.00;;;14.10;;
19495;SDS011;9888;48.606;9.630;2023-03-01T10:56:05;25.30;;;11.90;;
19495;SDS011;9888;48.606;9.630;2023-03-01T10:58:33;24.20;;;11.97;;
19495;SDS011;9888;48.606;9.630;2023-03-01T11:01:05;27.20;;;15.43;;
19495;SDS011;9888;48.606;9.630;2023-03-01T11:03:43;31.10;;;15.60;;
19495;SDS011;9888;48.606;9.630;2023-03-01T11:08:48;26.00;;;14.93;;
19495;SDS011;9888;48.606;9.630;2023-03-01T11:11:21;26.27;;;14.87;;
19495;SDS011;9888;48.606;9.630;2023-03-01T11:13:54;28.00;;;14.77;;
19495;SDS011;9888;48.606;9.630;2023-03-01T11:16:36;25.00;;;14.00;;
19495;SDS011;9888;48.606;9.630;2023-03-01T11:21:42;26.93;;;14.13;;
19495;SDS011;9888;48.606;9.630;2023-03-01T11:24:18;28.37;;;14.63;;
19495;SDS011;9888;48.606;9.630;2023-03-01T11:26:53;28.50;;;15.43;;
19495;SDS011;9888;48.606;9.630;2023-03-01T11:29:30;25.07;;;15.60;;
19495;SDS011;9888;48.606;9.630;2023-03-01T11:32:08;28.00;;;15.87;;
19495;SDS011;9888;48.606;9.630;2023-03-01T11:34:44;24.37;;;14.47;;
19495;SDS011;9888;48.606;9.630;2023-03-01T11:37:59;27.00;;;15.80;;
19495;SDS011;9888;48.606;9.630;2023-03-01T11:44:11;26.40;;;16.00;;
19495;SDS011;9888;48.606;9.630;2023-03-01T11:49:54;26.40;;;16.03;;
19495;SDS011;9888;48.606;9.630;2023-03-01T11:52:38;30.47;;;16.90;;
19495;SDS011;9888;48.606;9.630;2023-03-01T11:55:14;23.03;;;14.80;;
19495;SDS011;9888;48.606;9.630;2023-03-01T11:58:07;24.70;;;15.47;;
19495;SDS011;9888;48.606;9.630;2023-03-01T12:06:12;22.00;;;14.70;;
19495;SDS011;9888;48.606;9.630;2023-03-01T12:09:02;25.87;;;16.37;;
19495;SDS011;9888;48.606;9.630;2023-03-01T12:20:59;26.37;;;16.00;;
19495;SDS011;9888;48.606;9.630;2023-03-01T12:23:48;24.77;;;15.60;;
19495;SDS011;9888;48.606;9.630;2023-03-01T12:26:40;29.77;;;16.40;;
19495;SDS011;9888;48.606;9.630;2023-03-01T12:29:34;23.63;;;17.20;;
19495;SDS011;9888;48.606;9.630;2023-03-01T12:35:20;29.53;;;16.30;;
19495;SDS011;9888;48.606;9.630;2023-03-01T12:40:53;26.17;;;16.77;;
19495;SDS011;9888;48.606;9.630;2023-03-01T12:43:50;25.13;;;16.40;;
19495;SDS011;9888;48.606;9.630;2023-03-01T12:49:54;25.20;;;16.70;;
19495;SDS011;9888;48.606;9.630;2023-03-01T12:52:35;27.97;;;17.33;;
19495;SDS011;9888;48.606;9.630;2023-03-01T12:55:22;24.53;;;15.47;;
19495;SDS011;9888;48.606;9.630;2023-03-01T13:01:05;24.90;;;16.07;;
19495;SDS011;9888;48.606;9.630;2023-03-01T13:07:13;24.23;;;16.27;;
19495;SDS011;9888;48.606;9.630;2023-03-01T13:09:45;24.30;;;16.60;;
19495;SDS011;9888;48.606;9.630;2023-03-01T22:13:39;34.27;;;15.87;;
19495;SDS011;9888;48.606;9.630;2023-03-01T22:16:06;36.60;;;14.70;;
19495;SDS011;9888;48.606;9.630;2023-03-01T22:18:33;42.13;;;16.33;;
19495;SDS011;9888;48.606;9.630;2023-03-01T22:21:03;33.47;;;14.23;;
19495;SDS011;9888;48.606;9.630;2023-03-01T22:23:31;32.80;;;14.43;;
19495;SDS011;9888;48.606;9.630;2023-03-01T22:25:59;33.20;;;15.07;;
19495;SDS011;9888;48.606;9.630;2023-03-01T22:28:26;34.93;;;15.33;;
19495;SDS011;9888;48.606;9.630;2023-03-01T22:30:54;33.47;;;14.50;;
19495;SDS011;9888;48.606;9.630;2023-03-01T22:33:21;34.03;;;14.83;;
19495;SDS011;9888;48.606;9.630;2023-03-01T22:35:49;34.10;;;15.23;;
19495;SDS011;9888;48.606;9.630;2023-03-01T22:38:19;32.73;;;13.23;;
19495;SDS011;9888;48.606;9.630;2023-03-01T22:40:56;33.10;;;15.30;;
19495;SDS011;9888;48.606;9.630;2023-03-01T22:43:24;33.13;;;14.33;;
19495;SDS011;9888;48.606;9.630;2023-03-01T22:45:52;35.83;;;13.67;;
19495;SDS011;9888;48.606;9.630;2023-03-01T22:48:18;32.00;;;14.83;;
19495;SDS011;9888;48.606;9.630;2023-03-01T22:50:46;33.50;;;14.50;;
19495;SDS011;9888;48.606;9.630;2023-03-01T22:53:13;33.33;;;13.43;;
19495;SDS011;9888;48.606;9.630;2023-03-01T22:55:41;34.43;;;14.20;;
19495;SDS011;9888;48.606;9.630;2023-03-01T22:58:08;29.30;;;13.90;;
19495;SDS011;9888;48.606;9.630;2023-03-01T23:00:35;34.40;;;13.40;;
19495;SDS011;9888;48.606;9.630;2023-03-01T23:03:02;31.07;;;15.07;;
19495;SDS011;9888;48.606;9.630;2023-03-01T23:05:29;31.87;;;14.00;;
19495;SDS011;9888;48.606;9.630;2023-03-01T23:07:56;33.90;;;14.20;;
19495;SDS011;9888;48.606;9.630;2023-03-01T23:10:23;32.07;;;14.00;;
19495;SDS011;9888;48.606;9.630;2023-03-01T23:12:52;32.73;;;14.50;;
19495;SDS011;9888;48.606;9.630;2023-03-01T23:15:20;31.43;;;13.10;;
19495;SDS011;9888;48.606;9.630;2023-03-01T23:17:46;30.30;;;14.13;;
19495;SDS011;9888;48.606;9.630;2023-03-01T23:20:13;32.57;;;13.97;;
19495;SDS011;9888;48.606;9.630;2023-03-01T23:22:42;30.47;;;12.90;;
19495;SDS011;9888;48.606;9.630;2023-03-01T23:25:10;27.67;;;12.63;;
19495;SDS011;9888;48.606;9.630;2023-03-01T23:27:38;29.33;;;12.77;;
19495;SDS011;9888;48.606;9.630;2023-03-01T23:30:06;30.33;;;12.90;;
19495;SDS011;9888;48.606;9.630;2023-03-01T23:32:34;29.17;;;12.40;;
19495;SDS011;9888;48.606;9.630;2023-03-01T23:35:06;28.33;;;10.97;;
19495;SDS011;9888;48.606;9.630;2023-03-01T23:40:27;28.60;;;10.77;;
19495;SDS011;9888;48.606;9.630;2023-03-01T23:42:54;32.80;;;12.40;;
19495;SDS011;9888;48.606;9.630;2023-03-01T23:45:21;27.43;;;13.20;;
19495;SDS011;9888;48.606;9.630;2023-03-01T23:47:48;31.40;;;12.50;;
19495;SDS011;9888;48.606;9.630;2023-03-01T23:50:14;30.83;;;12.00;;
19495;SDS011;9888;48.606;9.630;2023-03-01T23:52:42;29.13;;;14.50;;
19495;SDS011;9888;48.606;9.630;2023-03-01T23:55:09;29.20;;;13.30;;
19495;SDS011;9888;48.606;9.630;2023-03-01T23:57:37;30.20;;;13.87;;
